sensor_id;sensor_type;location;lat;lon;timestamp;temperature;humidity
18291;DHT22;9271;48.590;8.866;2022-08-19T00:00:48;23.80;88.30
18291;DHT22;9271;48.590;8.866;2022-08-19T00:03:15;23.70;88.60
18291;DHT22;9271;48.590;8.866;2022-08-19T00:05:43;23.70;89.10
18291;DHT22;9271;48.590;8.866;2022-08-19T00:08:11;23.80;88.30
18291;DHT22;9271;48.590;8.866;2022-08-19T00:10:37;23.70;88.40
18291;DHT22;9271;48.590;8.866;2022-08-19T00:13:04;23.70;88.40
18291;DHT22;9271;48.590;8.866;2022-08-19T00:15:31;23.70;87.70
18291;DHT22;9271;48.590;8.866;2022-08-19T00:17:58;23.80;88.30
18291;DHT22;9271;48.590;8.866;2022-08-19T00:20:25;23.70;88.00
18291;DHT22;9271;48.590;8.866;2022-08-19T00:22:53;23.70;89.10
18291;DHT22;9271;48.590;8.866;2022-08-19T00:25:20;23.60;88.50
18291;DHT22;9271;48.590;8.866;2022-08-19T00:27:47;23.60;89.00
18291;DHT22;9271;48.590;8.866;2022-08-19T00:30:14;23.60;89.70
18291;DHT22;9271;48.590;8.866;2022-08-19T00:32:40;23.60;89.90
18291;DHT22;9271;48.590;8.866;2022-08-19T00:35:08;23.60;90.10
18291;DHT22;9271;48.590;8.866;2022-08-19T00:37:36;23.40;90.60
18291;DHT22;9271;48.590;8.866;2022-08-19T00:40:06;23.40;90.80
18291;DHT22;9271;48.590;8.866;2022-08-19T00:42:33;23.40;90.50
18291;DHT22;9271;48.590;8.866;2022-08-19T00:45:00;23.40;90.70
18291;DHT22;9271;48.590;8.866;2022-08-19T00:47:26;23.30;91.20
18291;DHT22;9271;48.590;8.866;2022-08-19T00:49:55;23.40;91.40
18291;DHT22;9271;48.590;8.866;2022-08-19T00:52:26;23.40;91.30
18291;DHT22;9271;48.590;8.866;2022-08-19T00:54:55;23.40;91.40
18291;DHT22;9271;48.590;8.866;2022-08-19T00:57:27;23.30;92.30
18291;DHT22;9271;48.590;8.866;2022-08-19T00:59:55;23.10;92.10
18291;DHT22;9271;48.590;8.866;2022-08-19T01:02:23;23.10;92.10
18291;DHT22;9271;48.590;8.866;2022-08-19T01:04:50;23.20;92.70
18291;DHT22;9271;48.590;8.866;2022-08-19T01:07:17;23.20;92.30
18291;DHT22;9271;48.590;8.866;2022-08-19T01:09:44;23.10;92.60
18291;DHT22;9271;48.590;8.866;2022-08-19T01:12:11;23.10;92.70
18291;DHT22;9271;48.590;8.866;2022-08-19T01:14:40;23.10;92.90
18291;DHT22;9271;48.590;8.866;2022-08-19T01:17:08;23.10;92.60
18291;DHT22;9271;48.590;8.866;2022-08-19T01:19:37;23.20;92.70
18291;DHT22;9271;48.590;8.866;2022-08-19T01:22:09;23.10;93.20
18291;DHT22;9271;48.590;8.866;2022-08-19T01:24:38;23.10;93.10
18291;DHT22;9271;48.590;8.866;2022-08-19T01:27:06;23.00;93.10
18291;DHT22;9271;48.590;8.866;2022-08-19T01:29:33;23.00;93.80
18291;DHT22;9271;48.590;8.866;2022-08-19T01:32:01;23.00;94.40
18291;DHT22;9271;48.590;8.866;2022-08-19T01:34:28;23.10;94.40
18291;DHT22;9271;48.590;8.866;2022-08-19T01:36:54;22.90;94.10
18291;DHT22;9271;48.590;8.866;2022-08-19T01:39:23;22.90;95.40
18291;DHT22;9271;48.590;8.866;2022-08-19T01:41:52;22.80;95.50
18291;DHT22;9271;48.590;8.866;2022-08-19T01:44:19;22.90;96.00
18291;DHT22;9271;48.590;8.866;2022-08-19T01:46:50;22.80;96.70
18291;DHT22;9271;48.590;8.866;2022-08-19T01:49:19;22.60;97.20
18291;DHT22;9271;48.590;8.866;2022-08-19T01:51:46;22.60;97.10
18291;DHT22;9271;48.590;8.866;2022-08-19T01:54:14;22.50;97.00
18291;DHT22;9271;48.590;8.866;2022-08-19T01:56:41;22.40;97.70
18291;DHT22;9271;48.590;8.866;2022-08-19T01:59:12;22.30;97.50
18291;DHT22;9271;48.590;8.866;2022-08-19T02:01:40;22.30;97.80
18291;DHT22;9271;48.590;8.866;2022-08-19T02:04:07;22.30;98.00
18291;DHT22;9271;48.590;8.866;2022-08-19T02:06:34;22.20;98.70
18291;DHT22;9271;48.590;8.866;2022-08-19T02:09:01;22.20;99.00
18291;DHT22;9271;48.590;8.866;2022-08-19T02:11:30;22.20;98.80
18291;DHT22;9271;48.590;8.866;2022-08-19T02:13:59;22.20;98.90
18291;DHT22;9271;48.590;8.866;2022-08-19T02:16:28;22.10;98.80
18291;DHT22;9271;48.590;8.866;2022-08-19T02:18:56;22.10;98.50
18291;DHT22;9271;48.590;8.866;2022-08-19T02:21:26;22.10;98.70
18291;DHT22;9271;48.590;8.866;2022-08-19T02:23:52;22.00;98.70
18291;DHT22;9271;48.590;8.866;2022-08-19T02:26:21;22.00;98.50
18291;DHT22;9271;48.590;8.866;2022-08-19T02:28:48;22.00;98.80
18291;DHT22;9271;48.590;8.866;2022-08-19T02:31:18;21.90;98.90
18291;DHT22;9271;48.590;8.866;2022-08-19T02:33:47;21.70;99.40
18291;DHT22;9271;48.590;8.866;2022-08-19T02:36:16;21.80;99.10
18291;DHT22;9271;48.590;8.866;2022-08-19T02:38:43;21.70;99.60
18291;DHT22;9271;48.590;8.866;2022-08-19T02:41:12;21.80;99.30
18291;DHT22;9271;48.590;8.866;2022-08-19T02:43:39;21.90;99.20
18291;DHT22;9271;48.590;8.866;2022-08-19T02:46:12;21.70;99.30
18291;DHT22;9271;48.590;8.866;2022-08-19T02:48:39;21.70;99.30
18291;DHT22;9271;48.590;8.866;2022-08-19T02:51:08;21.70;99.50
18291;DHT22;9271;48.590;8.866;2022-08-19T02:53:34;21.70;99.90
18291;DHT22;9271;48.590;8.866;2022-08-19T02:56:06;21.70;99.60
18291;DHT22;9271;48.590;8.866;2022-08-19T02:58:33;21.70;99.90
18291;DHT22;9271;48.590;8.866;2022-08-19T03:00:59;21.70;99.90
18291;DHT22;9271;48.590;8.866;2022-08-19T03:03:26;21.70;99.30
18291;DHT22;9271;48.590;8.866;2022-08-19T03:06:03;21.60;99.60
18291;DHT22;9271;48.590;8.866;2022-08-19T03:08:32;21.60;99.90
18291;DHT22;9271;48.590;8.866;2022-08-19T03:10:58;21.60;99.90
18291;DHT22;9271;48.590;8.866;2022-08-19T03:13:25;21.60;99.20
18291;DHT22;9271;48.590;8.866;2022-08-19T03:15:53;21.60;99.20
18291;DHT22;9271;48.590;8.866;2022-08-19T03:18:20;21.50;99.50
18291;DHT22;9271;48.590;8.866;2022-08-19T03:20:48;21.50;99.70
18291;DHT22;9271;48.590;8.866;2022-08-19T03:23:16;21.60;99.30
18291;DHT22;9271;48.590;8.866;2022-08-19T03:25:47;21.50;99.50
18291;DHT22;9271;48.590;8.866;2022-08-19T03:28:16;21.50;99.50
18291;DHT22;9271;48.590;8.866;2022-08-19T03:30:53;21.50;99.40
18291;DHT22;9271;48.590;8.866;2022-08-19T03:33:22;21.50;99.40
18291;DHT22;9271;48.590;8.866;2022-08-19T03:36:00;21.50;99.40
18291;DHT22;9271;48.590;8.866;2022-08-19T03:38:26;21.40;99.40
18291;DHT22;9271;48.590;8.866;2022-08-19T03:40:54;21.40;99.30
18291;DHT22;9271;48.590;8.866;2022-08-19T03:43:21;21.50;99.00
18291;DHT22;9271;48.590;8.866;2022-08-19T03:45:48;21.40;99.10
18291;DHT22;9271;48.590;8.866;2022-08-19T03:48:16;21.40;99.30
18291;DHT22;9271;48.590;8.866;2022-08-19T03:50:43;21.40;99.30
18291;DHT22;9271;48.590;8.866;2022-08-19T03:53:10;21.40;99.20
18291;DHT22;9271;48.590;8.866;2022-08-19T03:55:39;21.40;99.50
18291;DHT22;9271;48.590;8.866;2022-08-19T03:58:07;21.50;99.10
18291;DHT22;9271;48.590;8.866;2022-08-19T04:00:36;21.50;99.10
18291;DHT22;9271;48.590;8.866;2022-08-19T04:03:03;21.50;99.20
18291;DHT22;9271;48.590;8.866;2022-08-19T04:05:29;21.40;99.40
18291;DHT22;9271;48.590;8.866;2022-08-19T04:07:56;21.40;99.20
18291;DHT22;9271;48.590;8.866;2022-08-19T04:10:24;21.60;98.60
18291;DHT22;9271;48.590;8.866;2022-08-19T04:12:51;21.60;99.10
18291;DHT22;9271;48.590;8.866;2022-08-19T04:15:19;21.50;99.30
18291;DHT22;9271;48.590;8.866;2022-08-19T04:17:46;21.60;99.10
18291;DHT22;9271;48.590;8.866;2022-08-19T04:20:13;21.70;98.80
18291;DHT22;9271;48.590;8.866;2022-08-19T04:22:39;21.60;99.00
18291;DHT22;9271;48.590;8.866;2022-08-19T04:25:07;21.60;98.80
18291;DHT22;9271;48.590;8.866;2022-08-19T04:27:33;21.70;98.90
18291;DHT22;9271;48.590;8.866;2022-08-19T04:30:00;21.50;98.90
18291;DHT22;9271;48.590;8.866;2022-08-19T04:32:28;21.50;98.90
18291;DHT22;9271;48.590;8.866;2022-08-19T04:34:57;21.40;99.00
18291;DHT22;9271;48.590;8.866;2022-08-19T04:37:24;21.40;98.90
18291;DHT22;9271;48.590;8.866;2022-08-19T04:39:51;21.30;99.20
18291;DHT22;9271;48.590;8.866;2022-08-19T04:42:44;21.40;99.10
18291;DHT22;9271;48.590;8.866;2022-08-19T04:45:13;21.50;98.60
18291;DHT22;9271;48.590;8.866;2022-08-19T04:47:43;21.60;98.90
18291;DHT22;9271;48.590;8.866;2022-08-19T04:50:10;21.60;98.80
18291;DHT22;9271;48.590;8.866;2022-08-19T04:52:37;21.70;98.30
18291;DHT22;9271;48.590;8.866;2022-08-19T04:55:06;21.70;98.50
18291;DHT22;9271;48.590;8.866;2022-08-19T04:57:33;21.70;98.80
18291;DHT22;9271;48.590;8.866;2022-08-19T05:00:01;21.80;98.30
18291;DHT22;9271;48.590;8.866;2022-08-19T05:02:27;21.90;98.00
18291;DHT22;9271;48.590;8.866;2022-08-19T05:04:58;22.00;97.70
18291;DHT22;9271;48.590;8.866;2022-08-19T05:07:26;22.00;97.70
18291;DHT22;9271;48.590;8.866;2022-08-19T05:09:53;22.00;97.50
18291;DHT22;9271;48.590;8.866;2022-08-19T05:12:20;22.00;97.50
18291;DHT22;9271;48.590;8.866;2022-08-19T05:14:47;22.00;97.80
18291;DHT22;9271;48.590;8.866;2022-08-19T05:17:15;22.10;97.70
18291;DHT22;9271;48.590;8.866;2022-08-19T05:19:42;22.10;97.30
18291;DHT22;9271;48.590;8.866;2022-08-19T05:22:27;22.20;97.50
18291;DHT22;9271;48.590;8.866;2022-08-19T05:25:03;22.20;97.40
18291;DHT22;9271;48.590;8.866;2022-08-19T05:27:30;22.10;97.80
18291;DHT22;9271;48.590;8.866;2022-08-19T05:29:57;22.10;97.70
18291;DHT22;9271;48.590;8.866;2022-08-19T05:32:24;22.10;97.70
18291;DHT22;9271;48.590;8.866;2022-08-19T05:34:51;22.00;97.70
18291;DHT22;9271;48.590;8.866;2022-08-19T05:37:17;21.90;97.80
18291;DHT22;9271;48.590;8.866;2022-08-19T05:39:45;21.90;97.80
18291;DHT22;9271;48.590;8.866;2022-08-19T05:42:12;22.00;97.50
18291;DHT22;9271;48.590;8.866;2022-08-19T05:44:41;22.30;97.30
18291;DHT22;9271;48.590;8.866;2022-08-19T05:47:10;22.40;97.10
18291;DHT22;9271;48.590;8.866;2022-08-19T05:49:37;22.30;96.80
18291;DHT22;9271;48.590;8.866;2022-08-19T05:52:06;22.50;96.70
18291;DHT22;9271;48.590;8.866;2022-08-19T05:54:33;22.60;96.70
18291;DHT22;9271;48.590;8.866;2022-08-19T05:57:02;22.60;96.50
18291;DHT22;9271;48.590;8.866;2022-08-19T05:59:29;22.60;96.30
18291;DHT22;9271;48.590;8.866;2022-08-19T06:01:56;22.50;96.70
18291;DHT22;9271;48.590;8.866;2022-08-19T06:04:23;22.40;96.70
18291;DHT22;9271;48.590;8.866;2022-08-19T06:06:52;22.40;96.50
18291;DHT22;9271;48.590;8.866;2022-08-19T06:09:20;22.30;96.60
18291;DHT22;9271;48.590;8.866;2022-08-19T06:11:49;22.30;96.30
18291;DHT22;9271;48.590;8.866;2022-08-19T06:14:23;22.30;96.80
18291;DHT22;9271;48.590;8.866;2022-08-19T06:16:50;22.40;96.80
18291;DHT22;9271;48.590;8.866;2022-08-19T06:19:19;22.40;96.40
18291;DHT22;9271;48.590;8.866;2022-08-19T06:21:47;22.50;96.20
18291;DHT22;9271;48.590;8.866;2022-08-19T06:24:17;22.40;96.20
18291;DHT22;9271;48.590;8.866;2022-08-19T06:26:45;22.30;96.60
18291;DHT22;9271;48.590;8.866;2022-08-19T06:29:14;22.30;96.50
18291;DHT22;9271;48.590;8.866;2022-08-19T06:31:44;22.40;96.20
18291;DHT22;9271;48.590;8.866;2022-08-19T06:34:12;22.50;96.00
18291;DHT22;9271;48.590;8.866;2022-08-19T06:36:41;22.60;96.10
18291;DHT22;9271;48.590;8.866;2022-08-19T06:39:10;22.80;95.70
18291;DHT22;9271;48.590;8.866;2022-08-19T06:41:40;22.70;95.60
18291;DHT22;9271;48.590;8.866;2022-08-19T06:44:08;22.30;96.40
18291;DHT22;9271;48.590;8.866;2022-08-19T06:46:36;22.40;96.40
18291;DHT22;9271;48.590;8.866;2022-08-19T06:49:04;22.60;96.10
18291;DHT22;9271;48.590;8.866;2022-08-19T06:51:35;22.60;95.90
18291;DHT22;9271;48.590;8.866;2022-08-19T06:54:02;22.50;96.00
18291;DHT22;9271;48.590;8.866;2022-08-19T06:56:31;22.80;95.70
18291;DHT22;9271;48.590;8.866;2022-08-19T06:58:59;23.00;95.40
18291;DHT22;9271;48.590;8.866;2022-08-19T07:01:26;23.10;95.70
18291;DHT22;9271;48.590;8.866;2022-08-19T07:03:53;23.20;95.10
18291;DHT22;9271;48.590;8.866;2022-08-19T07:06:21;23.50;95.00
18291;DHT22;9271;48.590;8.866;2022-08-19T07:08:48;23.40;94.60
18291;DHT22;9271;48.590;8.866;2022-08-19T07:11:17;23.20;94.90
18291;DHT22;9271;48.590;8.866;2022-08-19T07:13:45;23.40;94.50
18291;DHT22;9271;48.590;8.866;2022-08-19T07:16:16;23.30;94.40
18291;DHT22;9271;48.590;8.866;2022-08-19T07:18:44;23.20;94.60
18291;DHT22;9271;48.590;8.866;2022-08-19T07:21:14;23.10;95.00
18291;DHT22;9271;48.590;8.866;2022-08-19T07:23:44;23.30;95.00
18291;DHT22;9271;48.590;8.866;2022-08-19T07:26:14;23.10;95.10
18291;DHT22;9271;48.590;8.866;2022-08-19T07:28:42;23.10;95.10
18291;DHT22;9271;48.590;8.866;2022-08-19T07:31:10;23.30;94.90
18291;DHT22;9271;48.590;8.866;2022-08-19T07:33:37;23.20;94.80
18291;DHT22;9271;48.590;8.866;2022-08-19T07:36:05;23.50;94.80
18291;DHT22;9271;48.590;8.866;2022-08-19T07:38:32;23.60;94.30
18291;DHT22;9271;48.590;8.866;2022-08-19T07:41:00;23.40;94.50
18291;DHT22;9271;48.590;8.866;2022-08-19T07:43:27;23.50;94.40
18291;DHT22;9271;48.590;8.866;2022-08-19T07:45:55;23.70;94.00
18291;DHT22;9271;48.590;8.866;2022-08-19T07:48:22;23.60;93.80
18291;DHT22;9271;48.590;8.866;2022-08-19T07:50:51;23.60;94.20
18291;DHT22;9271;48.590;8.866;2022-08-19T07:53:18;23.90;94.00
18291;DHT22;9271;48.590;8.866;2022-08-19T07:55:45;23.90;93.80
18291;DHT22;9271;48.590;8.866;2022-08-19T07:58:15;23.90;93.90
18291;DHT22;9271;48.590;8.866;2022-08-19T08:00:45;24.00;93.50
18291;DHT22;9271;48.590;8.866;2022-08-19T08:03:14;24.20;93.20
18291;DHT22;9271;48.590;8.866;2022-08-19T08:05:41;24.20;93.10
18291;DHT22;9271;48.590;8.866;2022-08-19T08:08:26;24.30;93.00
18291;DHT22;9271;48.590;8.866;2022-08-19T08:11:10;24.60;92.60
18291;DHT22;9271;48.590;8.866;2022-08-19T08:13:39;24.70;92.60
18291;DHT22;9271;48.590;8.866;2022-08-19T08:16:06;25.10;92.00
18291;DHT22;9271;48.590;8.866;2022-08-19T08:18:33;25.10;91.70
18291;DHT22;9271;48.590;8.866;2022-08-19T08:21:07;25.10;91.90
18291;DHT22;9271;48.590;8.866;2022-08-19T08:23:34;24.90;92.00
18291;DHT22;9271;48.590;8.866;2022-08-19T08:26:00;24.90;91.90
18291;DHT22;9271;48.590;8.866;2022-08-19T08:28:29;25.00;91.90
18291;DHT22;9271;48.590;8.866;2022-08-19T08:30:57;25.10;92.20
18291;DHT22;9271;48.590;8.866;2022-08-19T08:33:26;25.40;91.50
18291;DHT22;9271;48.590;8.866;2022-08-19T08:35:53;25.50;91.10
18291;DHT22;9271;48.590;8.866;2022-08-19T08:38:20;25.50;91.40
18291;DHT22;9271;48.590;8.866;2022-08-19T08:40:49;25.60;91.10
18291;DHT22;9271;48.590;8.866;2022-08-19T08:43:22;25.50;91.00
18291;DHT22;9271;48.590;8.866;2022-08-19T08:45:55;25.60;90.90
18291;DHT22;9271;48.590;8.866;2022-08-19T08:48:29;25.80;91.10
18291;DHT22;9271;48.590;8.866;2022-08-19T08:50:59;25.90;90.80
18291;DHT22;9271;48.590;8.866;2022-08-19T08:53:27;26.10;90.20
18291;DHT22;9271;48.590;8.866;2022-08-19T08:55:54;26.00;90.00
18291;DHT22;9271;48.590;8.866;2022-08-19T08:58:32;25.90;90.20
18291;DHT22;9271;48.590;8.866;2022-08-19T09:01:09;25.80;90.10
18291;DHT22;9271;48.590;8.866;2022-08-19T09:03:39;25.40;90.60
18291;DHT22;9271;48.590;8.866;2022-08-19T09:06:12;25.40;90.70
18291;DHT22;9271;48.590;8.866;2022-08-19T09:08:47;25.50;90.70
18291;DHT22;9271;48.590;8.866;2022-08-19T09:11:21;25.40;90.60
18291;DHT22;9271;48.590;8.866;2022-08-19T09:13:56;25.50;90.40
18291;DHT22;9271;48.590;8.866;2022-08-19T09:16:28;25.30;90.80
18291;DHT22;9271;48.590;8.866;2022-08-19T09:19:01;25.00;91.00
18291;DHT22;9271;48.590;8.866;2022-08-19T09:21:28;24.90;90.90
18291;DHT22;9271;48.590;8.866;2022-08-19T09:23:55;24.50;91.50
18291;DHT22;9271;48.590;8.866;2022-08-19T09:26:23;24.50;91.70
18291;DHT22;9271;48.590;8.866;2022-08-19T09:28:52;24.50;92.00
18291;DHT22;9271;48.590;8.866;2022-08-19T09:31:21;24.80;91.80
18291;DHT22;9271;48.590;8.866;2022-08-19T09:33:48;24.90;91.30
18291;DHT22;9271;48.590;8.866;2022-08-19T09:36:19;25.00;91.00
18291;DHT22;9271;48.590;8.866;2022-08-19T09:38:47;24.80;91.20
18291;DHT22;9271;48.590;8.866;2022-08-19T09:41:16;24.50;91.60
18291;DHT22;9271;48.590;8.866;2022-08-19T09:43:45;24.50;91.50
18291;DHT22;9271;48.590;8.866;2022-08-19T09:46:13;24.70;91.40
18291;DHT22;9271;48.590;8.866;2022-08-19T09:48:42;24.50;91.30
18291;DHT22;9271;48.590;8.866;2022-08-19T09:51:11;24.40;91.90
18291;DHT22;9271;48.590;8.866;2022-08-19T09:53:42;24.50;92.00
18291;DHT22;9271;48.590;8.866;2022-08-19T09:56:10;24.70;91.80
18291;DHT22;9271;48.590;8.866;2022-08-19T09:58:37;24.60;91.60
18291;DHT22;9271;48.590;8.866;2022-08-19T10:01:06;24.50;91.70
18291;DHT22;9271;48.590;8.866;2022-08-19T10:03:34;24.40;91.80
18291;DHT22;9271;48.590;8.866;2022-08-19T10:06:03;24.50;91.40
18291;DHT22;9271;48.590;8.866;2022-08-19T10:08:34;24.70;91.60
18291;DHT22;9271;48.590;8.866;2022-08-19T10:11:04;24.50;91.50
18291;DHT22;9271;48.590;8.866;2022-08-19T10:13:32;24.80;91.30
18291;DHT22;9271;48.590;8.866;2022-08-19T10:16:04;25.00;91.00
18291;DHT22;9271;48.590;8.866;2022-08-19T10:18:32;25.20;90.50
18291;DHT22;9271;48.590;8.866;2022-08-19T10:21:04;25.30;90.40
18291;DHT22;9271;48.590;8.866;2022-08-19T10:23:34;25.30;90.70
18291;DHT22;9271;48.590;8.866;2022-08-19T10:26:03;25.20;90.20
18291;DHT22;9271;48.590;8.866;2022-08-19T10:28:32;25.00;90.60
18291;DHT22;9271;48.590;8.866;2022-08-19T10:33:29;24.90;90.90
18291;DHT22;9271;48.590;8.866;2022-08-19T10:35:59;24.80;91.10
18291;DHT22;9271;48.590;8.866;2022-08-19T10:38:26;25.00;90.60
18291;DHT22;9271;48.590;8.866;2022-08-19T10:40:54;25.00;90.40
18291;DHT22;9271;48.590;8.866;2022-08-19T10:43:22;25.20;90.00
18291;DHT22;9271;48.590;8.866;2022-08-19T10:45:52;25.30;90.00
18291;DHT22;9271;48.590;8.866;2022-08-19T10:48:20;25.40;89.30
18291;DHT22;9271;48.590;8.866;2022-08-19T10:50:46;25.60;88.40
18291;DHT22;9271;48.590;8.866;2022-08-19T10:53:31;25.90;87.60
18291;DHT22;9271;48.590;8.866;2022-08-19T10:55:58;26.00;87.00
18291;DHT22;9271;48.590;8.866;2022-08-19T10:58:43;26.30;86.50
18291;DHT22;9271;48.590;8.866;2022-08-19T11:01:10;26.10;86.20
18291;DHT22;9271;48.590;8.866;2022-08-19T11:03:37;26.30;86.00
18291;DHT22;9271;48.590;8.866;2022-08-19T11:06:06;26.30;85.80
18291;DHT22;9271;48.590;8.866;2022-08-19T11:08:34;26.20;85.60
18291;DHT22;9271;48.590;8.866;2022-08-19T11:11:04;26.10;85.30
18291;DHT22;9271;48.590;8.866;2022-08-19T11:13:33;26.30;84.20
18291;DHT22;9271;48.590;8.866;2022-08-19T11:16:06;26.30;85.20
18291;DHT22;9271;48.590;8.866;2022-08-19T11:18:35;26.60;84.40
18291;DHT22;9271;48.590;8.866;2022-08-19T11:21:08;26.80;83.60
18291;DHT22;9271;48.590;8.866;2022-08-19T11:23:35;26.90;83.40
18291;DHT22;9271;48.590;8.866;2022-08-19T11:26:02;27.00;82.40
18291;DHT22;9271;48.590;8.866;2022-08-19T11:28:28;26.80;81.60
18291;DHT22;9271;48.590;8.866;2022-08-19T11:30:55;26.70;81.70
18291;DHT22;9271;48.590;8.866;2022-08-19T11:33:23;26.60;82.10
18291;DHT22;9271;48.590;8.866;2022-08-19T11:35:51;26.50;83.50
18291;DHT22;9271;48.590;8.866;2022-08-19T11:38:18;26.50;82.80
18291;DHT22;9271;48.590;8.866;2022-08-19T11:40:45;26.60;81.90
18291;DHT22;9271;48.590;8.866;2022-08-19T11:43:11;26.60;83.20
18291;DHT22;9271;48.590;8.866;2022-08-19T11:45:38;26.20;82.40
18291;DHT22;9271;48.590;8.866;2022-08-19T11:48:05;25.90;83.40
18291;DHT22;9271;48.590;8.866;2022-08-19T11:50:33;26.00;82.40
18291;DHT22;9271;48.590;8.866;2022-08-19T11:53:00;26.10;84.00
18291;DHT22;9271;48.590;8.866;2022-08-19T11:55:26;26.40;83.50
18291;DHT22;9271;48.590;8.866;2022-08-19T11:57:53;26.20;83.20
18291;DHT22;9271;48.590;8.866;2022-08-19T12:00:20;26.30;83.00
18291;DHT22;9271;48.590;8.866;2022-08-19T12:02:46;26.20;82.40
18291;DHT22;9271;48.590;8.866;2022-08-19T12:05:13;26.30;82.60
18291;DHT22;9271;48.590;8.866;2022-08-19T12:07:41;26.30;80.90
18291;DHT22;9271;48.590;8.866;2022-08-19T12:10:09;26.60;80.70
18291;DHT22;9271;48.590;8.866;2022-08-19T12:12:36;26.70;80.00
18291;DHT22;9271;48.590;8.866;2022-08-19T12:15:08;27.00;80.30
18291;DHT22;9271;48.590;8.866;2022-08-19T12:17:36;27.20;79.50
18291;DHT22;9271;48.590;8.866;2022-08-19T12:20:04;27.40;76.90
18291;DHT22;9271;48.590;8.866;2022-08-19T12:22:31;27.70;75.90
18291;DHT22;9271;48.590;8.866;2022-08-19T12:24:59;28.10;75.50
18291;DHT22;9271;48.590;8.866;2022-08-19T12:27:26;28.30;74.00
18291;DHT22;9271;48.590;8.866;2022-08-19T12:29:53;28.30;73.50
18291;DHT22;9271;48.590;8.866;2022-08-19T12:32:19;28.20;73.30
18291;DHT22;9271;48.590;8.866;2022-08-19T12:34:46;28.30;74.00
18291;DHT22;9271;48.590;8.866;2022-08-19T12:37:13;28.50;72.30
18291;DHT22;9271;48.590;8.866;2022-08-19T12:39:41;28.30;71.50
18291;DHT22;9271;48.590;8.866;2022-08-19T12:42:11;28.00;71.60
18291;DHT22;9271;48.590;8.866;2022-08-19T12:44:39;28.20;71.00
18291;DHT22;9271;48.590;8.866;2022-08-19T12:47:07;28.50;71.40
18291;DHT22;9271;48.590;8.866;2022-08-19T12:49:35;29.00;69.70
18291;DHT22;9271;48.590;8.866;2022-08-19T12:52:03;29.00;68.20
18291;DHT22;9271;48.590;8.866;2022-08-19T12:54:30;29.50;65.70
18291;DHT22;9271;48.590;8.866;2022-08-19T12:56:57;30.10;64.00
18291;DHT22;9271;48.590;8.866;2022-08-19T12:59:26;30.40;60.40
18291;DHT22;9271;48.590;8.866;2022-08-19T13:01:53;29.70;59.30
18291;DHT22;9271;48.590;8.866;2022-08-19T13:04:19;29.80;59.90
18291;DHT22;9271;48.590;8.866;2022-08-19T13:06:46;30.40;59.30
18291;DHT22;9271;48.590;8.866;2022-08-19T13:09:13;30.80;57.40
18291;DHT22;9271;48.590;8.866;2022-08-19T13:11:40;30.80;57.70
18291;DHT22;9271;48.590;8.866;2022-08-19T13:14:07;31.10;57.30
18291;DHT22;9271;48.590;8.866;2022-08-19T13:16:35;30.90;56.00
18291;DHT22;9271;48.590;8.866;2022-08-19T13:19:03;30.00;58.50
18291;DHT22;9271;48.590;8.866;2022-08-19T13:21:30;29.20;60.90
18291;DHT22;9271;48.590;8.866;2022-08-19T13:23:57;29.00;64.10
18291;DHT22;9271;48.590;8.866;2022-08-19T13:26:24;28.70;65.20
18291;DHT22;9271;48.590;8.866;2022-08-19T13:28:51;28.60;65.80
18291;DHT22;9271;48.590;8.866;2022-08-19T13:31:40;28.20;67.90
18291;DHT22;9271;48.590;8.866;2022-08-19T13:34:29;28.40;68.40
18291;DHT22;9271;48.590;8.866;2022-08-19T13:36:57;28.80;66.20
18291;DHT22;9271;48.590;8.866;2022-08-19T13:39:24;28.80;65.90
18291;DHT22;9271;48.590;8.866;2022-08-19T13:41:51;29.10;63.20
18291;DHT22;9271;48.590;8.866;2022-08-19T13:44:18;29.50;62.70
18291;DHT22;9271;48.590;8.866;2022-08-19T13:46:48;29.60;63.50
18291;DHT22;9271;48.590;8.866;2022-08-19T13:49:17;30.20;62.80
18291;DHT22;9271;48.590;8.866;2022-08-19T13:51:44;30.50;61.30
18291;DHT22;9271;48.590;8.866;2022-08-19T13:54:12;30.40;60.20
18291;DHT22;9271;48.590;8.866;2022-08-19T13:56:43;30.50;59.20
18291;DHT22;9271;48.590;8.866;2022-08-19T13:59:10;31.50;57.90
18291;DHT22;9271;48.590;8.866;2022-08-19T14:01:37;32.90;55.60
18291;DHT22;9271;48.590;8.866;2022-08-19T14:04:06;33.70;53.90
18291;DHT22;9271;48.590;8.866;2022-08-19T14:06:33;33.90;52.80
18291;DHT22;9271;48.590;8.866;2022-08-19T14:09:00;33.10;54.00
18291;DHT22;9271;48.590;8.866;2022-08-19T14:11:28;32.10;55.10
18291;DHT22;9271;48.590;8.866;2022-08-19T14:13:54;31.70;55.50
18291;DHT22;9271;48.590;8.866;2022-08-19T14:16:21;32.00;55.50
18291;DHT22;9271;48.590;8.866;2022-08-19T14:18:48;32.10;54.30
18291;DHT22;9271;48.590;8.866;2022-08-19T14:21:17;32.70;54.80
18291;DHT22;9271;48.590;8.866;2022-08-19T14:23:46;33.30;53.90
18291;DHT22;9271;48.590;8.866;2022-08-19T14:26:15;33.80;51.50
18291;DHT22;9271;48.590;8.866;2022-08-19T14:28:42;33.30;51.60
18291;DHT22;9271;48.590;8.866;2022-08-19T14:31:10;32.70;53.10
18291;DHT22;9271;48.590;8.866;2022-08-19T14:33:37;31.50;55.50
18291;DHT22;9271;48.590;8.866;2022-08-19T14:36:04;31.00;55.80
18291;DHT22;9271;48.590;8.866;2022-08-19T14:38:33;30.10;58.00
18291;DHT22;9271;48.590;8.866;2022-08-19T14:41:08;29.50;57.80
18291;DHT22;9271;48.590;8.866;2022-08-19T14:43:35;29.60;57.90
18291;DHT22;9271;48.590;8.866;2022-08-19T14:46:02;29.30;58.40
18291;DHT22;9271;48.590;8.866;2022-08-19T14:48:29;29.60;59.50
18291;DHT22;9271;48.590;8.866;2022-08-19T14:50:56;30.20;57.80
18291;DHT22;9271;48.590;8.866;2022-08-19T14:53:22;30.10;57.20
18291;DHT22;9271;48.590;8.866;2022-08-19T14:55:51;29.80;58.50
18291;DHT22;9271;48.590;8.866;2022-08-19T14:58:17;29.70;59.20
18291;DHT22;9271;48.590;8.866;2022-08-19T15:00:44;30.00;60.00
18291;DHT22;9271;48.590;8.866;2022-08-19T15:03:11;30.50;58.70
18291;DHT22;9271;48.590;8.866;2022-08-19T15:05:38;30.30;57.20
18291;DHT22;9271;48.590;8.866;2022-08-19T15:08:05;29.90;58.80
18291;DHT22;9271;48.590;8.866;2022-08-19T15:10:32;29.80;58.60
18291;DHT22;9271;48.590;8.866;2022-08-19T15:13:00;29.60;58.50
18291;DHT22;9271;48.590;8.866;2022-08-19T15:15:27;29.20;59.50
18291;DHT22;9271;48.590;8.866;2022-08-19T15:17:53;28.90;60.10
18291;DHT22;9271;48.590;8.866;2022-08-19T15:20:21;28.40;61.70
18291;DHT22;9271;48.590;8.866;2022-08-19T15:22:49;28.30;63.30
18291;DHT22;9271;48.590;8.866;2022-08-19T15:25:18;27.90;63.30
18291;DHT22;9271;48.590;8.866;2022-08-19T15:27:46;28.00;63.20
18291;DHT22;9271;48.590;8.866;2022-08-19T15:30:19;28.00;64.00
18291;DHT22;9271;48.590;8.866;2022-08-19T15:32:46;27.60;65.00
18291;DHT22;9271;48.590;8.866;2022-08-19T15:35:13;27.30;64.70
18291;DHT22;9271;48.590;8.866;2022-08-19T15:37:40;27.20;65.40
18291;DHT22;9271;48.590;8.866;2022-08-19T15:40:08;27.10;67.00
18291;DHT22;9271;48.590;8.866;2022-08-19T15:42:36;27.40;66.70
18291;DHT22;9271;48.590;8.866;2022-08-19T15:45:03;27.50;66.60
18291;DHT22;9271;48.590;8.866;2022-08-19T15:47:31;27.60;64.20
18291;DHT22;9271;48.590;8.866;2022-08-19T15:49:58;27.40;65.10
18291;DHT22;9271;48.590;8.866;2022-08-19T15:52:25;27.50;63.90
18291;DHT22;9271;48.590;8.866;2022-08-19T15:54:51;27.40;64.40